createdAt,value
2019-02-21T00:01:32.267Z,29.00
2019-02-21T00:04:00.952Z,33.70
2019-02-21T00:06:29.598Z,28.77
2019-02-21T00:08:58.173Z,29.53
2019-02-21T00:11:26.815Z,28.97
2019-02-21T00:13:55.417Z,33.00
2019-02-21T00:16:24.005Z,41.27
2019-02-21T00:21:40.258Z,35.87
2019-02-21T00:24:08.878Z,35.27
2019-02-21T00:26:37.555Z,31.30
2019-02-21T00:29:06.166Z,39.70
2019-02-21T00:31:34.794Z,33.57
2019-02-21T00:34:03.645Z,35.70
2019-02-21T00:36:32.300Z,34.27
2019-02-21T00:39:01.150Z,34.03
2019-02-21T00:41:29.884Z,33.80
2019-02-21T00:46:46.367Z,35.07
2019-02-21T00:49:14.977Z,41.67
2019-02-21T00:51:43.562Z,43.93
2019-02-21T00:54:12.198Z,36.03
2019-02-21T00:56:41.032Z,46.10
2019-02-21T00:59:09.680Z,38.47
2019-02-21T01:01:38.280Z,39.10
2019-02-21T01:04:27.728Z,38.60
2019-02-21T01:06:56.393Z,38.10
2019-02-21T01:09:25.227Z,39.27
2019-02-21T01:11:54.043Z,37.53
2019-02-21T01:14:22.903Z,35.73
2019-02-21T01:16:51.475Z,36.20
2019-02-21T01:19:20.114Z,36.43
2019-02-21T01:21:48.745Z,35.90
2019-02-21T01:24:17.334Z,38.27
2019-02-21T01:26:46.677Z,33.87
2019-02-21T01:29:15.413Z,36.80
2019-02-21T01:32:03.277Z,40.40
2019-02-21T01:34:31.927Z,35.93
2019-02-21T01:37:00.579Z,38.47
2019-02-21T01:39:29.326Z,38.13
2019-02-21T01:41:57.957Z,37.13
2019-02-21T01:44:26.555Z,35.77
2019-02-21T01:46:55.124Z,37.20
2019-02-21T01:49:23.837Z,40.30
2019-02-21T01:51:52.453Z,37.20
2019-02-21T01:54:21.136Z,36.03
2019-02-21T01:56:49.709Z,34.87
2019-02-21T01:59:18.273Z,44.23
2019-02-21T02:05:01.624Z,32.67
2019-02-21T02:10:18.066Z,38.20
2019-02-21T02:12:46.982Z,40.13
2019-02-21T02:15:15.926Z,35.00
2019-02-21T02:17:44.546Z,36.23
2019-02-21T02:20:13.145Z,35.67
2019-02-21T02:22:41.768Z,33.07
2019-02-21T02:25:10.401Z,36.70
2019-02-21T02:27:38.975Z,33.40
2019-02-21T02:30:08.103Z,36.63
2019-02-21T02:32:36.746Z,29.17
2019-02-21T02:35:05.732Z,27.73
2019-02-21T02:37:34.563Z,31.47
2019-02-21T02:40:03.128Z,33.03
2019-02-21T02:42:31.770Z,32.83
2019-02-21T02:45:00.651Z,26.30
2019-02-21T02:47:29.548Z,45.10
2019-02-21T02:49:58.153Z,32.13
2019-02-21T02:52:26.811Z,28.77
2019-02-21T02:54:55.404Z,27.47
2019-02-21T02:57:24.301Z,33.13
2019-02-21T02:59:52.888Z,31.47
2019-02-21T03:02:21.601Z,38.37
2019-02-21T03:04:50.262Z,36.33
2019-02-21T03:07:18.866Z,37.93
2019-02-21T03:10:06.729Z,40.47
2019-02-21T03:12:54.601Z,34.63
2019-02-21T03:15:23.301Z,37.37
2019-02-21T03:17:52.399Z,54.90
2019-02-21T03:20:20.973Z,52.40
2019-02-21T03:22:49.797Z,50.80
2019-02-21T03:25:18.382Z,49.07
2019-02-21T03:30:34.574Z,53.30
2019-02-21T03:33:03.188Z,48.20
2019-02-21T03:38:25.230Z,47.73
2019-02-21T03:43:28.815Z,49.67
2019-02-21T03:45:57.420Z,52.07
2019-02-21T03:48:26.297Z,50.10
2019-02-21T03:50:54.945Z,49.83
2019-02-21T03:53:23.532Z,49.23
2019-02-21T03:55:52.707Z,49.23
2019-02-21T03:58:21.438Z,55.27
2019-02-21T04:00:50.342Z,49.27
2019-02-21T04:03:18.974Z,44.90
2019-02-21T04:05:47.849Z,50.93
2019-02-21T04:08:16.490Z,49.03
2019-02-21T04:10:45.305Z,48.20
2019-02-21T04:13:15.329Z,50.43
2019-02-21T04:15:44.253Z,53.97
2019-02-21T04:18:12.864Z,47.23
2019-02-21T04:20:41.705Z,50.00
2019-02-21T04:23:10.300Z,45.87
2019-02-21T04:25:39.015Z,45.20
2019-02-21T04:28:07.595Z,47.47
2019-02-21T04:30:36.156Z,45.57
2019-02-21T04:33:04.740Z,52.40
2019-02-21T04:35:33.560Z,44.93
2019-02-21T04:38:02.239Z,47.60
2019-02-21T04:40:30.815Z,44.37
2019-02-21T04:42:59.453Z,42.40
2019-02-21T04:45:28.317Z,38.40
2019-02-21T04:47:56.935Z,41.87
2019-02-21T04:50:25.567Z,43.80
2019-02-21T04:52:54.144Z,43.40
2019-02-21T04:55:22.748Z,39.07
2019-02-21T04:57:51.365Z,40.93
2019-02-21T05:00:19.925Z,42.57
2019-02-21T05:02:48.723Z,49.90
2019-02-21T05:05:17.303Z,42.70
2019-02-21T05:07:45.965Z,41.47
2019-02-21T05:10:14.574Z,40.70
2019-02-21T05:12:43.154Z,41.30
2019-02-21T05:15:13.923Z,48.67
2019-02-21T05:17:42.041Z,43.70
2019-02-21T05:20:10.608Z,45.73
2019-02-21T05:22:39.210Z,40.63
2019-02-21T05:25:07.800Z,45.30
2019-02-21T05:27:39.694Z,44.00
2019-02-21T05:30:10.657Z,46.57
2019-02-21T05:33:01.553Z,43.20
2019-02-21T05:35:48.068Z,47.33
2019-02-21T05:38:50.950Z,43.43
2019-02-21T05:41:44.540Z,47.00
2019-02-21T05:44:36.209Z,42.00
2019-02-21T05:47:16.048Z,44.40
2019-02-21T05:49:49.595Z,43.70
2019-02-21T05:52:32.667Z,40.57
2019-02-21T05:55:32.521Z,40.20
2019-02-21T05:58:18.153Z,43.43
2019-02-21T06:00:52.347Z,40.47
2019-02-21T06:03:42.142Z,39.20
2019-02-21T06:06:30.105Z,41.23
2019-02-21T06:09:08.207Z,41.23
2019-02-21T06:11:44.761Z,36.87
2019-02-21T06:14:32.374Z,38.40
2019-02-21T06:17:16.737Z,38.63
2019-02-21T06:20:03.119Z,36.53
2019-02-21T06:22:43.988Z,33.73
2019-02-21T06:25:33.352Z,36.30
2019-02-21T06:28:19.741Z,33.20
2019-02-21T06:30:54.703Z,34.30
2019-02-21T06:33:23.519Z,34.13
2019-02-21T06:35:52.083Z,37.77
2019-02-21T06:38:21.159Z,32.50
2019-02-21T06:40:50.539Z,39.53
2019-02-21T06:43:19.091Z,41.77
2019-02-21T06:45:47.670Z,38.37
2019-02-21T06:48:16.298Z,37.60
2019-02-21T06:50:47.414Z,32.40
2019-02-21T06:53:15.566Z,38.87
2019-02-21T06:55:44.166Z,39.97
2019-02-21T06:58:12.752Z,39.00
2019-02-21T07:00:41.339Z,38.60
2019-02-21T07:03:15.919Z,33.90
2019-02-21T07:05:40.208Z,32.80
2019-02-21T07:08:09.064Z,28.83
2019-02-21T07:10:37.635Z,35.47
2019-02-21T07:13:06.205Z,33.70
2019-02-21T07:15:35.098Z,33.33
2019-02-21T07:18:03.725Z,39.00
2019-02-21T07:20:32.382Z,33.23
2019-02-21T07:23:00.957Z,36.57
2019-02-21T07:25:36.468Z,35.70
2019-02-21T07:28:11.831Z,35.97
2019-02-21T07:30:35.777Z,36.80
2019-02-21T07:33:04.382Z,32.37
2019-02-21T07:35:33.327Z,41.87
2019-02-21T07:38:01.912Z,35.50
2019-02-21T07:40:30.755Z,35.03
2019-02-21T07:42:59.344Z,35.33
2019-02-21T07:45:27.927Z,35.47
2019-02-21T07:47:56.795Z,39.40
2019-02-21T07:50:25.406Z,32.23
2019-02-21T07:53:02.048Z,29.07
2019-02-21T07:55:24.335Z,31.57
2019-02-21T07:57:52.947Z,34.87
2019-02-21T08:00:21.770Z,32.00
2019-02-21T08:02:50.365Z,37.20
2019-02-21T08:05:18.991Z,26.10
2019-02-21T08:07:49.812Z,29.30
2019-02-21T08:10:20.994Z,31.03
2019-02-21T08:12:48.651Z,27.40
2019-02-21T08:15:17.258Z,27.87
2019-02-21T08:17:45.855Z,25.20
2019-02-21T08:20:14.542Z,25.23
2019-02-21T08:22:43.181Z,29.83
2019-02-21T08:25:11.986Z,27.90
2019-02-21T08:27:42.491Z,26.47
2019-02-21T08:30:13.083Z,25.20
2019-02-21T08:33:00.560Z,26.40
2019-02-21T08:35:29.526Z,25.20
2019-02-21T08:37:58.175Z,28.37
2019-02-21T08:40:26.781Z,24.33
2019-02-21T08:42:55.408Z,29.77
2019-02-21T08:45:24.005Z,31.90
2019-02-21T08:47:53.598Z,31.13
2019-02-21T08:50:22.631Z,28.87
2019-02-21T08:52:51.376Z,34.17
2019-02-21T08:55:20.040Z,31.63
2019-02-21T08:57:48.648Z,35.30
2019-02-21T09:00:17.463Z,32.30
2019-02-21T09:02:46.114Z,33.60
2019-02-21T09:05:15.321Z,29.63
2019-02-21T09:07:46.191Z,26.13
2019-02-21T09:10:14.565Z,27.23
2019-02-21T09:12:47.836Z,27.87
2019-02-21T09:15:14.999Z,25.93
2019-02-21T09:17:43.613Z,29.60
2019-02-21T09:20:12.317Z,26.73
2019-02-21T09:22:40.990Z,25.67
2019-02-21T09:25:11.411Z,22.73
2019-02-21T09:27:40.009Z,20.70
2019-02-21T09:30:12.041Z,22.30
2019-02-21T09:32:42.045Z,19.17
2019-02-21T09:35:10.827Z,19.03
2019-02-21T09:37:39.573Z,19.50
2019-02-21T09:40:10.808Z,28.93
2019-02-21T09:42:39.598Z,22.00
2019-02-21T09:45:11.129Z,21.00
2019-02-21T09:47:39.748Z,21.60
2019-02-21T09:50:08.752Z,19.47
2019-02-21T09:52:37.630Z,23.20
2019-02-21T09:55:08.243Z,23.73
2019-02-21T09:57:36.837Z,24.23
2019-02-21T10:00:07.292Z,29.30
2019-02-21T10:02:36.147Z,32.43
2019-02-21T10:05:05.670Z,29.57
2019-02-21T10:07:37.003Z,36.33
2019-02-21T10:10:08.097Z,26.50
2019-02-21T10:12:36.017Z,31.20
2019-02-21T10:15:05.231Z,32.40
2019-02-21T10:17:33.811Z,33.37
2019-02-21T10:20:04.213Z,29.40
2019-02-21T10:22:32.938Z,32.40
2019-02-21T10:25:01.564Z,31.83
2019-02-21T10:27:30.173Z,31.17
2019-02-21T10:29:58.752Z,29.77
2019-02-21T10:32:27.360Z,29.77
2019-02-21T10:34:55.989Z,32.10
2019-02-21T10:37:24.627Z,34.30
2019-02-21T10:39:53.206Z,36.50
2019-02-21T10:42:21.833Z,39.27
2019-02-21T10:44:50.429Z,34.53
2019-02-21T10:47:20.214Z,32.57
2019-02-21T10:49:48.824Z,41.10
2019-02-21T10:52:17.542Z,42.53
2019-02-21T10:54:46.112Z,41.80
2019-02-21T10:57:15.065Z,37.73
2019-02-21T10:59:46.985Z,34.43
2019-02-21T11:02:14.283Z,37.87
2019-02-21T11:04:54.081Z,35.47
2019-02-21T11:07:13.448Z,40.67
2019-02-21T11:09:42.110Z,40.33
2019-02-21T11:12:10.754Z,38.37
2019-02-21T11:14:47.169Z,40.50
2019-02-21T11:17:09.969Z,48.80
2019-02-21T11:19:38.624Z,36.20
2019-02-21T11:22:07.250Z,38.53
2019-02-21T11:24:36.007Z,44.30
2019-02-21T11:27:04.774Z,43.33
2019-02-21T11:29:33.379Z,44.03
2019-02-21T11:32:02.332Z,40.47
2019-02-21T11:34:31.471Z,41.13
2019-02-21T11:37:00.072Z,38.20
2019-02-21T11:39:28.862Z,40.33
2019-02-21T11:41:57.452Z,40.93
2019-02-21T11:44:26.074Z,46.30
2019-02-21T11:46:54.963Z,43.07
2019-02-21T11:49:23.663Z,43.70
2019-02-21T11:51:52.277Z,38.50
2019-02-21T11:54:26.838Z,43.80
2019-02-21T11:56:51.456Z,38.93
2019-02-21T11:59:20.126Z,37.63
2019-02-21T12:01:48.884Z,44.53
2019-02-21T12:04:17.560Z,43.70
2019-02-21T12:06:47.749Z,43.03
2019-02-21T12:09:16.389Z,43.03
2019-02-21T12:11:46.396Z,38.07
2019-02-21T12:14:15.152Z,41.03
2019-02-21T12:16:43.983Z,35.20
2019-02-21T12:19:12.650Z,37.43
2019-02-21T12:21:41.449Z,39.33
2019-02-21T12:24:10.378Z,40.10
2019-02-21T12:26:39.173Z,44.30
2019-02-21T12:29:07.905Z,37.97
2019-02-21T12:31:36.677Z,37.50
2019-02-21T12:34:06.977Z,36.27
2019-02-21T12:36:36.280Z,38.80
2019-02-21T12:39:06.287Z,37.23
2019-02-21T12:41:37.720Z,33.80
2019-02-21T12:44:06.327Z,40.67
2019-02-21T12:46:35.382Z,39.67
2019-02-21T12:49:04.050Z,39.73
2019-02-21T12:51:32.749Z,41.97
2019-02-21T12:54:01.691Z,36.40
2019-02-21T12:56:30.352Z,40.23
2019-02-21T12:58:58.983Z,37.47
2019-02-21T13:01:27.610Z,39.90
2019-02-21T13:03:56.324Z,42.97
2019-02-21T13:06:25.018Z,34.37
2019-02-21T13:08:53.651Z,35.77
2019-02-21T13:11:22.272Z,40.57
2019-02-21T13:13:51.188Z,34.93
2019-02-21T13:16:19.901Z,46.90
2019-02-21T13:18:48.763Z,42.37
2019-02-21T13:21:17.432Z,40.67
2019-02-21T13:23:46.028Z,39.67
2019-02-21T13:26:14.741Z,38.50
2019-02-21T13:28:43.428Z,38.93
2019-02-21T13:31:12.585Z,48.97
2019-02-21T13:33:41.179Z,39.13
2019-02-21T13:36:09.891Z,50.87
2019-02-21T13:38:38.494Z,39.77
2019-02-21T13:41:07.265Z,40.20
2019-02-21T13:43:35.849Z,46.20
2019-02-21T13:46:04.790Z,32.90
2019-02-21T13:48:33.482Z,35.50
2019-02-21T13:51:02.158Z,36.53
2019-02-21T13:53:31.028Z,37.33
2019-02-21T13:55:59.644Z,37.70
2019-02-21T13:58:28.310Z,34.80
2019-02-21T14:00:57.155Z,36.23
2019-02-21T14:03:25.851Z,40.47
2019-02-21T14:06:03.289Z,38.47
2019-02-21T14:08:24.995Z,36.83
2019-02-21T14:10:53.641Z,32.37
2019-02-21T14:13:22.302Z,41.20
2019-02-21T14:15:51.281Z,45.57
2019-02-21T14:18:19.996Z,40.03
2019-02-21T14:20:48.662Z,39.23
2019-02-21T14:23:17.341Z,38.50
2019-02-21T14:25:46.197Z,46.37
2019-02-21T14:28:14.848Z,38.00
2019-02-21T14:30:43.625Z,38.50
2019-02-21T14:33:12.255Z,41.80
2019-02-21T14:35:41.375Z,42.30
2019-02-21T14:38:10.248Z,46.60
2019-02-21T14:40:39.197Z,46.53
2019-02-21T14:43:08.086Z,44.60
2019-02-21T14:45:36.704Z,39.47
2019-02-21T14:48:05.417Z,40.20
2019-02-21T14:50:36.079Z,34.67
2019-02-21T14:53:04.546Z,36.63
2019-02-21T14:55:33.219Z,34.93
2019-02-21T14:58:03.979Z,37.13
2019-02-21T15:00:32.938Z,50.10
2019-02-21T15:03:01.526Z,41.10
2019-02-21T15:05:30.577Z,34.60
2019-02-21T15:07:59.248Z,42.07
2019-02-21T15:10:28.154Z,34.80
2019-02-21T15:12:56.748Z,37.27
2019-02-21T15:15:25.511Z,40.63
2019-02-21T15:17:54.224Z,37.53
2019-02-21T15:20:23.331Z,37.10
2019-02-21T15:22:53.896Z,39.37
2019-02-21T15:25:22.660Z,39.43
2019-02-21T15:27:52.337Z,39.53
2019-02-21T15:30:21.038Z,38.33
2019-02-21T15:32:49.819Z,40.90
2019-02-21T15:35:19.661Z,36.10
2019-02-21T15:37:48.486Z,38.60
2019-02-21T15:40:17.441Z,42.53
2019-02-21T15:42:46.218Z,39.30
2019-02-21T15:45:23.111Z,46.30
2019-02-21T15:47:47.349Z,43.50
2019-02-21T15:50:15.947Z,40.17
2019-02-21T15:52:44.855Z,41.60
2019-02-21T15:55:14.339Z,42.87
2019-02-21T15:57:43.205Z,41.13
2019-02-21T16:00:13.992Z,37.77
2019-02-21T16:02:42.636Z,41.53
2019-02-21T16:05:13.160Z,45.40
2019-02-21T16:07:41.989Z,53.30
2019-02-21T16:10:12.732Z,48.13
2019-02-21T16:12:42.057Z,44.53
2019-02-21T16:15:11.642Z,51.57
2019-02-21T16:17:40.531Z,53.30
2019-02-21T16:20:10.883Z,46.90
2019-02-21T16:22:39.833Z,52.83
2019-02-21T16:25:10.191Z,49.87
2019-02-21T16:27:39.188Z,54.87
2019-02-21T16:30:08.624Z,49.40
2019-02-21T16:32:37.530Z,61.33
2019-02-21T16:35:06.741Z,49.47
2019-02-21T16:37:38.046Z,49.40
2019-02-21T16:40:08.485Z,42.87
2019-02-21T16:42:37.432Z,49.60
2019-02-21T16:45:07.081Z,45.73
2019-02-21T16:47:35.810Z,47.07
2019-02-21T16:50:04.582Z,45.23
2019-02-21T16:52:33.280Z,44.33
2019-02-21T16:55:01.967Z,42.43
2019-02-21T16:57:36.588Z,44.43
2019-02-21T17:00:05.971Z,38.80
2019-02-21T17:02:34.648Z,53.60
2019-02-21T17:05:03.346Z,41.20
2019-02-21T17:07:32.027Z,49.03
2019-02-21T17:10:00.865Z,38.37
2019-02-21T17:12:29.750Z,51.03
2019-02-21T17:14:58.366Z,56.40
2019-02-21T17:17:27.362Z,47.83
2019-02-21T17:19:55.937Z,39.20
2019-02-21T17:22:24.624Z,46.70
2019-02-21T17:24:53.318Z,46.63
2019-02-21T17:27:21.860Z,45.43
2019-02-21T17:29:50.505Z,35.80
2019-02-21T17:32:19.071Z,52.20
2019-02-21T17:34:48.405Z,41.80
2019-02-21T17:37:24.635Z,31.70
2019-02-21T17:39:47.918Z,33.00
2019-02-21T17:42:16.481Z,27.90
2019-02-21T17:44:45.558Z,23.20
2019-02-21T17:47:14.131Z,28.63
2019-02-21T17:49:42.829Z,30.47
2019-02-21T17:52:11.386Z,28.37
2019-02-21T17:54:40.225Z,35.23
2019-02-21T17:57:08.808Z,32.90
2019-02-21T17:59:37.853Z,37.00
2019-02-21T18:02:06.626Z,32.50
2019-02-21T18:04:35.458Z,34.60
2019-02-21T18:07:04.048Z,27.50
2019-02-21T18:09:32.677Z,27.13
2019-02-21T18:12:01.261Z,27.70
2019-02-21T18:14:30.377Z,23.17
2019-02-21T18:16:59.009Z,26.87
2019-02-21T18:19:27.809Z,22.50
2019-02-21T18:21:56.400Z,25.13
2019-02-21T18:24:25.277Z,24.90
2019-02-21T18:26:53.853Z,21.47
2019-02-21T18:29:22.422Z,22.43
2019-02-21T18:31:51.950Z,17.70
2019-02-21T18:34:20.493Z,21.73
2019-02-21T18:36:49.338Z,20.50
2019-02-21T18:39:18.858Z,23.40
2019-02-21T18:41:47.445Z,25.93
2019-02-21T18:44:16.045Z,25.97
2019-02-21T18:46:44.642Z,32.73
2019-02-21T18:49:13.277Z,31.63
2019-02-21T18:51:42.114Z,30.87
2019-02-21T18:54:10.678Z,24.87
2019-02-21T18:56:39.273Z,27.40
2019-02-21T18:59:08.162Z,32.50
2019-02-21T19:01:37.019Z,34.00
2019-02-21T19:04:05.913Z,32.27
2019-02-21T19:06:34.595Z,31.67
2019-02-21T19:09:03.512Z,35.63
2019-02-21T19:11:32.458Z,43.43
2019-02-21T19:14:01.056Z,35.83
2019-02-21T19:16:29.638Z,39.47
2019-02-21T19:18:58.763Z,46.70
2019-02-21T19:21:27.345Z,51.00
2019-02-21T19:23:55.919Z,48.70
2019-02-21T19:26:24.775Z,51.37
2019-02-21T19:28:53.456Z,45.23
2019-02-21T19:31:22.108Z,53.77
2019-02-21T19:33:50.783Z,46.17
2019-02-21T19:36:19.363Z,44.53
2019-02-21T19:38:48.170Z,51.17
2019-02-21T19:41:16.843Z,49.97
2019-02-21T19:43:45.768Z,55.20
2019-02-21T19:46:14.415Z,50.27
2019-02-21T19:48:43.081Z,49.73
2019-02-21T19:51:11.741Z,48.20
2019-02-21T19:53:40.335Z,51.27
2019-02-21T19:56:09.004Z,54.07
2019-02-21T19:58:37.580Z,62.77
2019-02-21T20:01:06.249Z,63.43
2019-02-21T20:03:34.896Z,64.77
2019-02-21T20:06:03.545Z,60.13
2019-02-21T20:08:32.365Z,65.00
2019-02-21T20:11:00.937Z,60.30
2019-02-21T20:13:29.545Z,62.73
2019-02-21T20:15:58.275Z,69.90
2019-02-21T20:18:27.103Z,71.60
2019-02-21T20:20:55.711Z,72.10
2019-02-21T20:23:24.298Z,61.27
2019-02-21T20:25:52.972Z,62.60
2019-02-21T20:28:21.811Z,62.73
2019-02-21T20:30:50.709Z,66.03
2019-02-21T20:33:19.589Z,74.50
2019-02-21T20:35:48.152Z,82.33
2019-02-21T20:38:17.029Z,73.17
2019-02-21T20:40:45.601Z,70.27
2019-02-21T20:43:14.225Z,81.43
2019-02-21T20:45:52.466Z,85.33
2019-02-21T20:48:13.475Z,84.77
2019-02-21T20:50:42.369Z,94.33
2019-02-21T20:53:11.292Z,90.80
2019-02-21T20:55:43.848Z,86.53
2019-02-21T20:58:11.686Z,79.80
2019-02-21T21:00:40.460Z,71.03
2019-02-21T21:03:09.088Z,73.33
2019-02-21T21:05:37.628Z,78.10
2019-02-21T21:08:07.051Z,80.53
2019-02-21T21:10:35.879Z,83.43
2019-02-21T21:13:04.469Z,85.30
2019-02-21T21:15:33.121Z,96.70
2019-02-21T21:18:01.740Z,92.30
2019-02-21T21:20:30.355Z,89.50
2019-02-21T21:22:58.991Z,91.93
2019-02-21T21:25:27.590Z,100.53
2019-02-21T21:27:56.430Z,87.80
2019-02-21T21:30:25.086Z,82.00
2019-02-21T21:32:53.924Z,78.93
2019-02-21T21:35:22.737Z,85.87
2019-02-21T21:37:51.328Z,86.40
2019-02-21T21:40:19.981Z,82.57
2019-02-21T21:42:48.565Z,79.60
2019-02-21T21:45:17.253Z,78.77
2019-02-21T21:47:46.091Z,76.80
2019-02-21T21:50:15.989Z,71.70
2019-02-21T21:52:44.878Z,78.53
2019-02-21T21:55:13.566Z,70.87
2019-02-21T21:57:43.744Z,76.53
2019-02-21T22:00:17.926Z,74.00
2019-02-21T22:02:45.741Z,80.53
2019-02-21T22:05:14.339Z,71.10
2019-02-21T22:07:43.172Z,74.57
2019-02-21T22:10:12.610Z,62.83
2019-02-21T22:12:42.242Z,66.00
2019-02-21T22:15:11.436Z,64.20
2019-02-21T22:17:42.109Z,67.00
2019-02-21T22:20:10.685Z,59.70
2019-02-21T22:22:39.261Z,66.07
2019-02-21T22:25:09.165Z,60.43
2019-02-21T22:27:37.747Z,57.03
2019-02-21T22:30:07.338Z,55.23
2019-02-21T22:32:35.934Z,53.67
2019-02-21T22:35:05.004Z,57.80
2019-02-21T22:37:33.577Z,58.83
2019-02-21T22:40:02.153Z,58.30
2019-02-21T22:42:30.775Z,60.17
2019-02-21T22:44:59.356Z,51.13
2019-02-21T22:47:27.976Z,50.43
2019-02-21T22:49:56.546Z,51.43
2019-02-21T22:52:25.233Z,44.67
2019-02-21T22:54:53.811Z,48.57
2019-02-21T22:57:22.420Z,43.73
2019-02-21T22:59:51.053Z,48.67
2019-02-21T23:02:19.881Z,40.87
2019-02-21T23:05:28.762Z,44.57
2019-02-21T23:08:14.062Z,43.43
2019-02-21T23:10:42.864Z,41.00
2019-02-21T23:13:11.505Z,39.13
2019-02-21T23:15:40.412Z,38.03
2019-02-21T23:18:09.001Z,39.30
2019-02-21T23:20:37.646Z,32.87
2019-02-21T23:23:06.240Z,32.50
2019-02-21T23:25:35.128Z,35.93
2019-02-21T23:28:03.716Z,34.53
2019-02-21T23:30:32.803Z,31.50
2019-02-21T23:33:01.392Z,28.17
2019-02-21T23:35:30.016Z,31.97
2019-02-21T23:37:58.872Z,30.70
2019-02-21T23:40:27.461Z,26.93
2019-02-21T23:42:56.355Z,30.97
2019-02-21T23:45:25.052Z,25.73
2019-02-21T23:47:53.753Z,22.43
2019-02-21T23:50:22.712Z,23.67
2019-02-21T23:52:51.526Z,24.60
2019-02-21T23:55:20.118Z,21.40
2019-02-21T23:57:48.684Z,21.67
